sensor_id;sensor_type;location;lat;lon;timestamp;temperature;humidity
61896;DHT22;47835;52.778;5.956;2022-09-09T00:01:28;20.50;96.90
61896;DHT22;47835;52.778;5.956;2022-09-09T00:07:15;20.40;96.70
61896;DHT22;47835;52.778;5.956;2022-09-09T00:09:50;20.40;96.70
61896;DHT22;47835;52.778;5.956;2022-09-09T00:12:34;20.40;96.90
61896;DHT22;47835;52.778;5.956;2022-09-09T00:15:05;20.40;96.50
61896;DHT22;47835;52.778;5.956;2022-09-09T00:17:42;20.40;96.60
61896;DHT22;47835;52.778;5.956;2022-09-09T00:20:24;20.40;96.60
61896;DHT22;47835;52.778;5.956;2022-09-09T00:23:19;20.40;96.50
61896;DHT22;47835;52.778;5.956;2022-09-09T00:28:25;20.40;96.90
61896;DHT22;47835;52.778;5.956;2022-09-09T00:30:52;20.40;96.70
61896;DHT22;47835;52.778;5.956;2022-09-09T00:33:20;20.30;96.90
61896;DHT22;47835;52.778;5.956;2022-09-09T00:35:59;20.40;96.90
61896;DHT22;47835;52.778;5.956;2022-09-09T00:38:37;20.40;97.10
61896;DHT22;47835;52.778;5.956;2022-09-09T00:41:13;20.40;97.20
61896;DHT22;47835;52.778;5.956;2022-09-09T00:43:40;20.30;97.30
61896;DHT22;47835;52.778;5.956;2022-09-09T00:46:32;20.40;97.30
61896;DHT22;47835;52.778;5.956;2022-09-09T00:52:36;20.40;97.30
61896;DHT22;47835;52.778;5.956;2022-09-09T00:54:55;20.30;97.40
61896;DHT22;47835;52.778;5.956;2022-09-09T00:57:38;20.40;97.50
61896;DHT22;47835;52.778;5.956;2022-09-09T01:00:33;20.30;98.00
61896;DHT22;47835;52.778;5.956;2022-09-09T01:03:34;20.30;97.70
61896;DHT22;47835;52.778;5.956;2022-09-09T01:14:29;20.30;98.00
61896;DHT22;47835;52.778;5.956;2022-09-09T01:17:01;20.30;98.20
61896;DHT22;47835;52.778;5.956;2022-09-09T01:28:06;20.30;98.40
61896;DHT22;47835;52.778;5.956;2022-09-09T01:30:37;20.30;98.50
61896;DHT22;47835;52.778;5.956;2022-09-09T01:33:03;20.30;98.60
61896;DHT22;47835;52.778;5.956;2022-09-09T01:38:09;20.30;98.70
61896;DHT22;47835;52.778;5.956;2022-09-09T01:40:35;20.30;98.80
61896;DHT22;47835;52.778;5.956;2022-09-09T01:43:02;20.30;98.80
61896;DHT22;47835;52.778;5.956;2022-09-09T01:45:28;20.30;98.90
61896;DHT22;47835;52.778;5.956;2022-09-09T01:47:55;20.30;98.80
61896;DHT22;47835;52.778;5.956;2022-09-09T01:50:22;20.30;98.90
61896;DHT22;47835;52.778;5.956;2022-09-09T01:52:51;20.30;99.00
61896;DHT22;47835;52.778;5.956;2022-09-09T01:55:26;20.30;99.40
61896;DHT22;47835;52.778;5.956;2022-09-09T02:00:43;20.30;99.10
61896;DHT22;47835;52.778;5.956;2022-09-09T02:03:28;20.30;99.20
61896;DHT22;47835;52.778;5.956;2022-09-09T02:08:38;20.30;99.30
61896;DHT22;47835;52.778;5.956;2022-09-09T02:11:23;20.30;99.40
61896;DHT22;47835;52.778;5.956;2022-09-09T02:13:51;20.20;99.40
61896;DHT22;47835;52.778;5.956;2022-09-09T02:16:35;20.30;99.40
61896;DHT22;47835;52.778;5.956;2022-09-09T02:19:06;20.40;99.50
61896;DHT22;47835;52.778;5.956;2022-09-09T02:21:34;20.30;99.30
61896;DHT22;47835;52.778;5.956;2022-09-09T02:24:02;20.30;99.20
61896;DHT22;47835;52.778;5.956;2022-09-09T02:26:31;20.30;99.20
61896;DHT22;47835;52.778;5.956;2022-09-09T02:29:02;20.30;99.20
61896;DHT22;47835;52.778;5.956;2022-09-09T02:31:28;20.30;99.30
61896;DHT22;47835;52.778;5.956;2022-09-09T02:33:59;20.30;99.30
61896;DHT22;47835;52.778;5.956;2022-09-09T02:36:29;20.30;99.30
61896;DHT22;47835;52.778;5.956;2022-09-09T02:38:56;20.30;99.20
61896;DHT22;47835;52.778;5.956;2022-09-09T02:41:31;20.30;99.20
61896;DHT22;47835;52.778;5.956;2022-09-09T02:43:57;20.20;99.30
61896;DHT22;47835;52.778;5.956;2022-09-09T02:46:36;20.30;99.30
61896;DHT22;47835;52.778;5.956;2022-09-09T02:49:18;20.30;99.40
61896;DHT22;47835;52.778;5.956;2022-09-09T02:51:53;20.20;99.50
61896;DHT22;47835;52.778;5.956;2022-09-09T02:54:27;20.20;99.50
61896;DHT22;47835;52.778;5.956;2022-09-09T02:56:54;20.30;99.60
61896;DHT22;47835;52.778;5.956;2022-09-09T02:59:22;20.20;99.60
61896;DHT22;47835;52.778;5.956;2022-09-09T03:01:50;20.20;99.60
61896;DHT22;47835;52.778;5.956;2022-09-09T03:04:15;20.20;99.70
61896;DHT22;47835;52.778;5.956;2022-09-09T03:06:41;20.20;99.70
61896;DHT22;47835;52.778;5.956;2022-09-09T03:09:06;20.20;99.70
61896;DHT22;47835;52.778;5.956;2022-09-09T03:11:33;20.20;99.70
61896;DHT22;47835;52.778;5.956;2022-09-09T03:13:58;20.20;99.70
61896;DHT22;47835;52.778;5.956;2022-09-09T03:16:24;20.20;99.70
61896;DHT22;47835;52.778;5.956;2022-09-09T03:18:50;20.20;99.70
61896;DHT22;47835;52.778;5.956;2022-09-09T03:21:15;20.20;99.70
61896;DHT22;47835;52.778;5.956;2022-09-09T03:23:41;20.20;99.70
61896;DHT22;47835;52.778;5.956;2022-09-09T03:26:07;20.20;99.70
61896;DHT22;47835;52.778;5.956;2022-09-09T03:28:33;20.20;99.70
61896;DHT22;47835;52.778;5.956;2022-09-09T03:31:00;20.20;99.80
61896;DHT22;47835;52.778;5.956;2022-09-09T03:33:26;20.20;99.80
61896;DHT22;47835;52.778;5.956;2022-09-09T03:35:51;20.10;99.70
61896;DHT22;47835;52.778;5.956;2022-09-09T03:38:17;20.10;99.70
61896;DHT22;47835;52.778;5.956;2022-09-09T03:40:54;20.10;99.60
61896;DHT22;47835;52.778;5.956;2022-09-09T03:43:26;20.10;99.60
61896;DHT22;47835;52.778;5.956;2022-09-09T03:45:52;20.10;99.50
61896;DHT22;47835;52.778;5.956;2022-09-09T03:48:18;20.10;99.50
61896;DHT22;47835;52.778;5.956;2022-09-09T03:50:46;20.10;99.50
61896;DHT22;47835;52.778;5.956;2022-09-09T03:53:12;20.10;99.50
61896;DHT22;47835;52.778;5.956;2022-09-09T03:55:37;20.10;99.50
61896;DHT22;47835;52.778;5.956;2022-09-09T03:58:03;20.10;99.60
61896;DHT22;47835;52.778;5.956;2022-09-09T04:00:29;20.00;99.60
61896;DHT22;47835;52.778;5.956;2022-09-09T04:02:55;20.00;99.60
61896;DHT22;47835;52.778;5.956;2022-09-09T04:05:23;20.10;99.60
61896;DHT22;47835;52.778;5.956;2022-09-09T04:07:48;20.00;99.50
61896;DHT22;47835;52.778;5.956;2022-09-09T04:10:14;20.00;99.60
61896;DHT22;47835;52.778;5.956;2022-09-09T04:12:41;20.00;99.60
61896;DHT22;47835;52.778;5.956;2022-09-09T04:15:07;20.00;99.70
61896;DHT22;47835;52.778;5.956;2022-09-09T04:17:33;19.90;99.80
61896;DHT22;47835;52.778;5.956;2022-09-09T04:19:59;19.90;99.70
61896;DHT22;47835;52.778;5.956;2022-09-09T04:22:24;19.90;99.70
61896;DHT22;47835;52.778;5.956;2022-09-09T04:24:50;20.00;99.70
61896;DHT22;47835;52.778;5.956;2022-09-09T04:27:15;19.90;99.60
61896;DHT22;47835;52.778;5.956;2022-09-09T04:29:41;19.90;99.50
61896;DHT22;47835;52.778;5.956;2022-09-09T04:32:06;19.90;99.50
61896;DHT22;47835;52.778;5.956;2022-09-09T04:34:32;19.90;99.50
61896;DHT22;47835;52.778;5.956;2022-09-09T04:36:58;19.90;99.40
61896;DHT22;47835;52.778;5.956;2022-09-09T04:39:24;19.90;99.40
61896;DHT22;47835;52.778;5.956;2022-09-09T04:41:49;19.90;99.30
61896;DHT22;47835;52.778;5.956;2022-09-09T04:44:15;19.80;99.30
61896;DHT22;47835;52.778;5.956;2022-09-09T04:46:41;19.80;99.40
61896;DHT22;47835;52.778;5.956;2022-09-09T04:49:06;19.90;99.30
61896;DHT22;47835;52.778;5.956;2022-09-09T04:51:32;19.80;99.20
61896;DHT22;47835;52.778;5.956;2022-09-09T04:53:58;19.80;99.20
61896;DHT22;47835;52.778;5.956;2022-09-09T04:56:23;19.80;99.10
61896;DHT22;47835;52.778;5.956;2022-09-09T04:58:52;19.80;99.20
61896;DHT22;47835;52.778;5.956;2022-09-09T05:01:19;19.80;99.10
61896;DHT22;47835;52.778;5.956;2022-09-09T05:03:47;19.80;99.10
61896;DHT22;47835;52.778;5.956;2022-09-09T05:06:22;19.80;99.10
61896;DHT22;47835;52.778;5.956;2022-09-09T05:08:48;19.80;99.20
61896;DHT22;47835;52.778;5.956;2022-09-09T05:11:19;19.80;99.20
61896;DHT22;47835;52.778;5.956;2022-09-09T05:13:45;19.80;99.10
61896;DHT22;47835;52.778;5.956;2022-09-09T05:16:11;19.80;99.20
61896;DHT22;47835;52.778;5.956;2022-09-09T05:18:41;19.80;99.10
61896;DHT22;47835;52.778;5.956;2022-09-09T05:21:14;19.80;99.10
61896;DHT22;47835;52.778;5.956;2022-09-09T05:23:40;19.80;99.20
61896;DHT22;47835;52.778;5.956;2022-09-09T05:26:09;19.80;99.20
61896;DHT22;47835;52.778;5.956;2022-09-09T05:28:35;19.80;99.20
61896;DHT22;47835;52.778;5.956;2022-09-09T05:31:03;19.80;99.90
61896;DHT22;47835;52.778;5.956;2022-09-09T05:33:31;19.90;99.10
61896;DHT22;47835;52.778;5.956;2022-09-09T05:35:58;19.90;99.10
61896;DHT22;47835;52.778;5.956;2022-09-09T05:38:24;19.70;98.60
61896;DHT22;47835;52.778;5.956;2022-09-09T05:40:51;19.60;99.90
61896;DHT22;47835;52.778;5.956;2022-09-09T05:43:18;19.50;99.60
61896;DHT22;47835;52.778;5.956;2022-09-09T05:45:48;19.30;99.90
61896;DHT22;47835;52.778;5.956;2022-09-09T05:48:15;19.20;99.90
61896;DHT22;47835;52.778;5.956;2022-09-09T05:50:42;19.20;99.90
61896;DHT22;47835;52.778;5.956;2022-09-09T05:53:08;19.40;99.90
61896;DHT22;47835;52.778;5.956;2022-09-09T05:55:35;19.40;99.90
61896;DHT22;47835;52.778;5.956;2022-09-09T05:58:01;19.50;99.90
61896;DHT22;47835;52.778;5.956;2022-09-09T06:00:26;19.50;99.90
61896;DHT22;47835;52.778;5.956;2022-09-09T06:02:52;19.60;99.90
61896;DHT22;47835;52.778;5.956;2022-09-09T06:05:19;19.60;99.90
61896;DHT22;47835;52.778;5.956;2022-09-09T06:07:44;19.70;99.90
61896;DHT22;47835;52.778;5.956;2022-09-09T06:10:11;19.70;99.90
61896;DHT22;47835;52.778;5.956;2022-09-09T06:12:39;19.80;99.90
61896;DHT22;47835;52.778;5.956;2022-09-09T06:15:05;19.70;99.90
61896;DHT22;47835;52.778;5.956;2022-09-09T06:17:31;19.80;99.90
61896;DHT22;47835;52.778;5.956;2022-09-09T06:19:56;19.80;99.90
61896;DHT22;47835;52.778;5.956;2022-09-09T06:22:22;19.80;99.90
61896;DHT22;47835;52.778;5.956;2022-09-09T06:24:48;19.90;99.90
61896;DHT22;47835;52.778;5.956;2022-09-09T06:27:13;19.90;99.90
61896;DHT22;47835;52.778;5.956;2022-09-09T06:29:39;19.90;99.80
61896;DHT22;47835;52.778;5.956;2022-09-09T06:32:04;19.90;99.60
61896;DHT22;47835;52.778;5.956;2022-09-09T06:34:30;19.90;99.60
61896;DHT22;47835;52.778;5.956;2022-09-09T06:36:56;19.90;99.50
61896;DHT22;47835;52.778;5.956;2022-09-09T06:39:23;19.90;99.90
61896;DHT22;47835;52.778;5.956;2022-09-09T06:41:48;20.00;99.90
61896;DHT22;47835;52.778;5.956;2022-09-09T06:44:15;20.00;99.90
61896;DHT22;47835;52.778;5.956;2022-09-09T06:46:40;20.00;99.90
61896;DHT22;47835;52.778;5.956;2022-09-09T06:49:08;20.10;99.90
61896;DHT22;47835;52.778;5.956;2022-09-09T06:51:35;20.10;99.90
61896;DHT22;47835;52.778;5.956;2022-09-09T06:54:03;20.10;99.90
61896;DHT22;47835;52.778;5.956;2022-09-09T06:56:31;20.00;99.90
61896;DHT22;47835;52.778;5.956;2022-09-09T06:58:59;20.10;99.90
61896;DHT22;47835;52.778;5.956;2022-09-09T07:01:31;20.10;99.90
61896;DHT22;47835;52.778;5.956;2022-09-09T07:03:58;20.10;99.90
61896;DHT22;47835;52.778;5.956;2022-09-09T07:06:29;20.10;99.90
61896;DHT22;47835;52.778;5.956;2022-09-09T07:08:57;20.20;99.90
61896;DHT22;47835;52.778;5.956;2022-09-09T07:11:27;20.20;99.90
61896;DHT22;47835;52.778;5.956;2022-09-09T07:13:53;20.20;99.90
61896;DHT22;47835;52.778;5.956;2022-09-09T07:16:20;20.20;99.90
61896;DHT22;47835;52.778;5.956;2022-09-09T07:18:46;20.20;99.90
61896;DHT22;47835;52.778;5.956;2022-09-09T07:21:13;20.30;99.90
61896;DHT22;47835;52.778;5.956;2022-09-09T07:23:40;20.30;99.90
61896;DHT22;47835;52.778;5.956;2022-09-09T07:26:10;20.40;99.90
61896;DHT22;47835;52.778;5.956;2022-09-09T07:28:37;20.50;99.80
61896;DHT22;47835;52.778;5.956;2022-09-09T07:31:03;20.50;99.10
61896;DHT22;47835;52.778;5.956;2022-09-09T07:33:30;20.60;98.80
61896;DHT22;47835;52.778;5.956;2022-09-09T07:38:40;20.60;98.70
61896;DHT22;47835;52.778;5.956;2022-09-09T07:41:08;20.60;99.90
61896;DHT22;47835;52.778;5.956;2022-09-09T07:43:41;20.60;98.80
61896;DHT22;47835;52.778;5.956;2022-09-09T07:46:08;20.70;98.80
61896;DHT22;47835;52.778;5.956;2022-09-09T07:48:34;20.70;99.00
61896;DHT22;47835;52.778;5.956;2022-09-09T07:51:09;20.60;99.10
61896;DHT22;47835;52.778;5.956;2022-09-09T07:53:35;20.60;99.50
61896;DHT22;47835;52.778;5.956;2022-09-09T07:56:10;20.60;99.50
61896;DHT22;47835;52.778;5.956;2022-09-09T07:58:37;20.70;99.90
61896;DHT22;47835;52.778;5.956;2022-09-09T08:01:10;20.70;99.40
61896;DHT22;47835;52.778;5.956;2022-09-09T08:03:37;20.70;99.80
61896;DHT22;47835;52.778;5.956;2022-09-09T08:06:06;20.60;99.40
61896;DHT22;47835;52.778;5.956;2022-09-09T08:08:33;20.70;99.40
61896;DHT22;47835;52.778;5.956;2022-09-09T08:11:08;20.70;99.20
61896;DHT22;47835;52.778;5.956;2022-09-09T08:13:35;20.70;99.80
61896;DHT22;47835;52.778;5.956;2022-09-09T08:16:11;20.70;99.70
61896;DHT22;47835;52.778;5.956;2022-09-09T08:18:37;20.60;99.50
61896;DHT22;47835;52.778;5.956;2022-09-09T08:21:07;20.60;99.90
61896;DHT22;47835;52.778;5.956;2022-09-09T08:23:34;20.60;99.90
61896;DHT22;47835;52.778;5.956;2022-09-09T08:26:13;20.70;99.90
61896;DHT22;47835;52.778;5.956;2022-09-09T08:28:40;20.60;99.90
61896;DHT22;47835;52.778;5.956;2022-09-09T08:31:11;20.70;99.90
61896;DHT22;47835;52.778;5.956;2022-09-09T08:33:37;20.60;99.90
61896;DHT22;47835;52.778;5.956;2022-09-09T08:36:04;20.60;99.90
61896;DHT22;47835;52.778;5.956;2022-09-09T08:38:30;20.60;99.90
61896;DHT22;47835;52.778;5.956;2022-09-09T08:41:07;20.60;99.90
61896;DHT22;47835;52.778;5.956;2022-09-09T08:43:34;20.60;99.90
61896;DHT22;47835;52.778;5.956;2022-09-09T08:46:20;20.60;99.40
61896;DHT22;47835;52.778;5.956;2022-09-09T08:48:57;20.60;99.60
61896;DHT22;47835;52.778;5.956;2022-09-09T08:51:27;20.70;99.90
61896;DHT22;47835;52.778;5.956;2022-09-09T08:53:55;20.70;99.90
61896;DHT22;47835;52.778;5.956;2022-09-09T08:56:24;20.70;99.90
61896;DHT22;47835;52.778;5.956;2022-09-09T08:58:53;20.70;99.90
61896;DHT22;47835;52.778;5.956;2022-09-09T09:07:13;20.70;99.90
61896;DHT22;47835;52.778;5.956;2022-09-09T09:12:21;20.70;99.90
61896;DHT22;47835;52.778;5.956;2022-09-09T09:14:48;20.70;99.90
61896;DHT22;47835;52.778;5.956;2022-09-09T09:17:19;20.70;99.60
61896;DHT22;47835;52.778;5.956;2022-09-09T09:19:47;20.70;99.50
61896;DHT22;47835;52.778;5.956;2022-09-09T09:32:44;20.70;98.40
61896;DHT22;47835;52.778;5.956;2022-09-09T09:35:14;20.70;98.50
61896;DHT22;47835;52.778;5.956;2022-09-09T09:37:41;20.70;98.20
61896;DHT22;47835;52.778;5.956;2022-09-09T09:40:14;20.70;97.90
61896;DHT22;47835;52.778;5.956;2022-09-09T09:42:53;20.70;98.10
61896;DHT22;47835;52.778;5.956;2022-09-09T09:48:04;20.70;98.50
61896;DHT22;47835;52.778;5.956;2022-09-09T09:50:32;20.60;98.40
61896;DHT22;47835;52.778;5.956;2022-09-09T09:53:04;20.70;98.40
61896;DHT22;47835;52.778;5.956;2022-09-09T09:55:31;20.70;98.40
61896;DHT22;47835;52.778;5.956;2022-09-09T09:58:06;20.60;98.50
61896;DHT22;47835;52.778;5.956;2022-09-09T10:00:33;20.70;98.60
61896;DHT22;47835;52.778;5.956;2022-09-09T10:03:00;20.70;98.60
61896;DHT22;47835;52.778;5.956;2022-09-09T10:05:30;20.70;98.60
61896;DHT22;47835;52.778;5.956;2022-09-09T10:08:02;20.70;98.50
61896;DHT22;47835;52.778;5.956;2022-09-09T10:13:47;20.70;99.90
61896;DHT22;47835;52.778;5.956;2022-09-09T10:16:37;20.70;99.90
61896;DHT22;47835;52.778;5.956;2022-09-09T10:19:09;20.70;99.60
61896;DHT22;47835;52.778;5.956;2022-09-09T10:27:33;20.70;99.10
61896;DHT22;47835;52.778;5.956;2022-09-09T10:30:19;20.70;99.10
61896;DHT22;47835;52.778;5.956;2022-09-09T10:32:53;20.70;99.20
61896;DHT22;47835;52.778;5.956;2022-09-09T10:35:40;20.70;99.00
61896;DHT22;47835;52.778;5.956;2022-09-09T10:38:16;20.70;99.30
61896;DHT22;47835;52.778;5.956;2022-09-09T10:43:46;20.70;99.90
61896;DHT22;47835;52.778;5.956;2022-09-09T10:49:16;20.70;99.30
61896;DHT22;47835;52.778;5.956;2022-09-09T10:57:11;20.70;99.20
61896;DHT22;47835;52.778;5.956;2022-09-09T10:59:43;20.70;99.00
61896;DHT22;47835;52.778;5.956;2022-09-09T11:02:25;20.70;99.90
61896;DHT22;47835;52.778;5.956;2022-09-09T11:05:06;20.70;99.30
61896;DHT22;47835;52.778;5.956;2022-09-09T11:07:40;20.70;99.20
61896;DHT22;47835;52.778;5.956;2022-09-09T11:13:11;20.70;99.10
61896;DHT22;47835;52.778;5.956;2022-09-09T11:15:48;20.70;98.90
61896;DHT22;47835;52.778;5.956;2022-09-09T11:18:21;20.80;98.90
61896;DHT22;47835;52.778;5.956;2022-09-09T11:20:53;20.70;98.80
61896;DHT22;47835;52.778;5.956;2022-09-09T11:23:42;20.70;98.70
61896;DHT22;47835;52.778;5.956;2022-09-09T11:26:18;20.80;98.70
61896;DHT22;47835;52.778;5.956;2022-09-09T11:35:21;20.80;98.80
61896;DHT22;47835;52.778;5.956;2022-09-09T11:40:38;20.70;98.30
61896;DHT22;47835;52.778;5.956;2022-09-09T11:43:17;20.70;98.40
61896;DHT22;47835;52.778;5.956;2022-09-09T11:45:53;20.70;98.20
61896;DHT22;47835;52.778;5.956;2022-09-09T11:51:11;20.80;98.40
61896;DHT22;47835;52.778;5.956;2022-09-09T11:56:53;20.80;98.00
61896;DHT22;47835;52.778;5.956;2022-09-09T11:59:24;20.70;98.40
61896;DHT22;47835;52.778;5.956;2022-09-09T12:09:41;20.70;98.40
61896;DHT22;47835;52.778;5.956;2022-09-09T12:14:54;20.70;98.70
61896;DHT22;47835;52.778;5.956;2022-09-09T12:17:22;20.70;99.40
61896;DHT22;47835;52.778;5.956;2022-09-09T12:28:11;20.80;99.90
61896;DHT22;47835;52.778;5.956;2022-09-09T12:31:05;20.90;99.90
61896;DHT22;47835;52.778;5.956;2022-09-09T12:33:40;20.90;99.90
61896;DHT22;47835;52.778;5.956;2022-09-09T12:36:14;20.90;99.70
61896;DHT22;47835;52.778;5.956;2022-09-09T12:38:41;20.90;99.70
61896;DHT22;47835;52.778;5.956;2022-09-09T12:41:19;20.90;99.60
61896;DHT22;47835;52.778;5.956;2022-09-09T12:43:45;20.90;99.60
61896;DHT22;47835;52.778;5.956;2022-09-09T12:46:22;20.80;99.50
61896;DHT22;47835;52.778;5.956;2022-09-09T12:48:52;20.90;99.70
61896;DHT22;47835;52.778;5.956;2022-09-09T12:51:32;20.90;99.70
61896;DHT22;47835;52.778;5.956;2022-09-09T12:53:59;20.80;99.60
61896;DHT22;47835;52.778;5.956;2022-09-09T12:56:32;20.90;99.60
61896;DHT22;47835;52.778;5.956;2022-09-09T12:58:58;20.90;99.60
61896;DHT22;47835;52.778;5.956;2022-09-09T13:03:54;20.90;99.90
61896;DHT22;47835;52.778;5.956;2022-09-09T13:06:26;20.90;99.90
61896;DHT22;47835;52.778;5.956;2022-09-09T13:08:53;20.80;99.60
61896;DHT22;47835;52.778;5.956;2022-09-09T13:11:35;20.90;99.80
61896;DHT22;47835;52.778;5.956;2022-09-09T13:14:02;20.90;99.80
61896;DHT22;47835;52.778;5.956;2022-09-09T13:16:32;20.90;99.90
61896;DHT22;47835;52.778;5.956;2022-09-09T13:19:08;20.90;99.80
61896;DHT22;47835;52.778;5.956;2022-09-09T13:21:37;20.90;99.90
61896;DHT22;47835;52.778;5.956;2022-09-09T13:24:25;20.90;99.90
61896;DHT22;47835;52.778;5.956;2022-09-09T13:26:58;20.90;99.90
61896;DHT22;47835;52.778;5.956;2022-09-09T13:29:25;20.90;99.90
61896;DHT22;47835;52.778;5.956;2022-09-09T13:31:52;20.90;99.90
61896;DHT22;47835;52.778;5.956;2022-09-09T13:34:34;20.90;99.90
61896;DHT22;47835;52.778;5.956;2022-09-09T13:37:05;20.90;99.90
61896;DHT22;47835;52.778;5.956;2022-09-09T13:39:36;20.90;99.90
61896;DHT22;47835;52.778;5.956;2022-09-09T13:42:03;20.90;99.90
61896;DHT22;47835;52.778;5.956;2022-09-09T13:44:35;20.90;99.90
61896;DHT22;47835;52.778;5.956;2022-09-09T13:49:29;20.90;99.90
61896;DHT22;47835;52.778;5.956;2022-09-09T13:54:33;20.90;99.90
61896;DHT22;47835;52.778;5.956;2022-09-09T13:56:58;20.90;99.90
61896;DHT22;47835;52.778;5.956;2022-09-09T13:59:24;20.90;99.90
61896;DHT22;47835;52.778;5.956;2022-09-09T14:01:51;20.90;99.90
61896;DHT22;47835;52.778;5.956;2022-09-09T14:04:17;20.90;99.90
61896;DHT22;47835;52.778;5.956;2022-09-09T14:06:43;20.90;99.90
61896;DHT22;47835;52.778;5.956;2022-09-09T14:09:14;20.90;99.90
61896;DHT22;47835;52.778;5.956;2022-09-09T14:11:40;20.90;99.90
61896;DHT22;47835;52.778;5.956;2022-09-09T14:14:06;20.90;99.90
61896;DHT22;47835;52.778;5.956;2022-09-09T14:16:33;20.90;99.90
61896;DHT22;47835;52.778;5.956;2022-09-09T14:18:58;20.90;99.90
61896;DHT22;47835;52.778;5.956;2022-09-09T14:21:25;20.90;99.90
61896;DHT22;47835;52.778;5.956;2022-09-09T14:23:51;20.90;99.90
61896;DHT22;47835;52.778;5.956;2022-09-09T14:26:18;20.80;99.90
61896;DHT22;47835;52.778;5.956;2022-09-09T14:28:45;20.90;99.90
61896;DHT22;47835;52.778;5.956;2022-09-09T14:31:11;20.80;99.90
61896;DHT22;47835;52.778;5.956;2022-09-09T14:33:39;20.80;99.90
61896;DHT22;47835;52.778;5.956;2022-09-09T14:36:05;20.80;99.90
61896;DHT22;47835;52.778;5.956;2022-09-09T14:38:32;20.80;99.90
61896;DHT22;47835;52.778;5.956;2022-09-09T14:40:59;20.80;99.90
61896;DHT22;47835;52.778;5.956;2022-09-09T14:43:25;20.80;99.90
61896;DHT22;47835;52.778;5.956;2022-09-09T14:45:52;20.80;99.90
61896;DHT22;47835;52.778;5.956;2022-09-09T14:48:17;20.80;99.90
61896;DHT22;47835;52.778;5.956;2022-09-09T14:50:43;20.80;99.90
61896;DHT22;47835;52.778;5.956;2022-09-09T14:53:09;20.90;99.90
61896;DHT22;47835;52.778;5.956;2022-09-09T14:55:36;20.90;99.90
61896;DHT22;47835;52.778;5.956;2022-09-09T14:58:02;20.90;99.90
61896;DHT22;47835;52.778;5.956;2022-09-09T15:00:28;20.90;99.90
61896;DHT22;47835;52.778;5.956;2022-09-09T15:02:54;20.90;99.90
61896;DHT22;47835;52.778;5.956;2022-09-09T15:05:19;20.90;99.90
61896;DHT22;47835;52.778;5.956;2022-09-09T15:07:45;20.90;99.90
61896;DHT22;47835;52.778;5.956;2022-09-09T15:10:10;20.90;99.90
61896;DHT22;47835;52.778;5.956;2022-09-09T15:12:36;20.90;99.90
61896;DHT22;47835;52.778;5.956;2022-09-09T15:15:04;21.00;99.90
61896;DHT22;47835;52.778;5.956;2022-09-09T15:17:30;21.00;99.90
61896;DHT22;47835;52.778;5.956;2022-09-09T15:19:55;21.00;99.90
61896;DHT22;47835;52.778;5.956;2022-09-09T15:22:21;21.00;99.90
61896;DHT22;47835;52.778;5.956;2022-09-09T15:24:47;21.00;99.90
61896;DHT22;47835;52.778;5.956;2022-09-09T15:27:12;21.00;99.90
61896;DHT22;47835;52.778;5.956;2022-09-09T15:29:40;21.00;99.90
61896;DHT22;47835;52.778;5.956;2022-09-09T15:32:07;21.00;99.90
61896;DHT22;47835;52.778;5.956;2022-09-09T15:34:32;21.00;99.90
61896;DHT22;47835;52.778;5.956;2022-09-09T15:36:58;21.00;99.90
61896;DHT22;47835;52.778;5.956;2022-09-09T15:39:25;21.10;99.90
61896;DHT22;47835;52.778;5.956;2022-09-09T15:41:51;21.10;99.90
61896;DHT22;47835;52.778;5.956;2022-09-09T15:44:17;21.10;99.90
61896;DHT22;47835;52.778;5.956;2022-09-09T15:46:52;21.00;99.90
61896;DHT22;47835;52.778;5.956;2022-09-09T15:49:25;21.10;99.90
61896;DHT22;47835;52.778;5.956;2022-09-09T15:51:56;21.10;99.90
61896;DHT22;47835;52.778;5.956;2022-09-09T15:54:23;21.10;99.90
61896;DHT22;47835;52.778;5.956;2022-09-09T15:56:57;21.10;99.90
61896;DHT22;47835;52.778;5.956;2022-09-09T15:59:28;21.10;99.90
61896;DHT22;47835;52.778;5.956;2022-09-09T16:01:54;21.10;99.90
61896;DHT22;47835;52.778;5.956;2022-09-09T16:04:21;21.10;99.90
61896;DHT22;47835;52.778;5.956;2022-09-09T16:07:04;21.10;99.90
61896;DHT22;47835;52.778;5.956;2022-09-09T16:09:31;21.10;99.90
61896;DHT22;47835;52.778;5.956;2022-09-09T16:11:59;21.10;99.90
61896;DHT22;47835;52.778;5.956;2022-09-09T16:14:26;21.00;99.90
61896;DHT22;47835;52.778;5.956;2022-09-09T16:16:52;21.00;99.90
61896;DHT22;47835;52.778;5.956;2022-09-09T16:19:18;21.00;99.90
61896;DHT22;47835;52.778;5.956;2022-09-09T16:21:49;21.00;99.90
61896;DHT22;47835;52.778;5.956;2022-09-09T16:24:17;21.00;99.90
61896;DHT22;47835;52.778;5.956;2022-09-09T16:26:47;21.00;99.90
61896;DHT22;47835;52.778;5.956;2022-09-09T16:29:14;21.00;99.90
61896;DHT22;47835;52.778;5.956;2022-09-09T16:31:40;21.00;99.90
61896;DHT22;47835;52.778;5.956;2022-09-09T16:34:07;21.00;99.90
61896;DHT22;47835;52.778;5.956;2022-09-09T16:36:34;21.00;99.90
61896;DHT22;47835;52.778;5.956;2022-09-09T16:39:03;21.00;99.90
61896;DHT22;47835;52.778;5.956;2022-09-09T16:41:30;21.00;99.90
61896;DHT22;47835;52.778;5.956;2022-09-09T16:44:03;21.00;99.90
61896;DHT22;47835;52.778;5.956;2022-09-09T16:46:30;21.00;99.90
61896;DHT22;47835;52.778;5.956;2022-09-09T16:48:57;21.00;99.90
61896;DHT22;47835;52.778;5.956;2022-09-09T16:51:26;21.00;99.90
61896;DHT22;47835;52.778;5.956;2022-09-09T16:53:53;21.00;99.90
61896;DHT22;47835;52.778;5.956;2022-09-09T16:56:21;21.00;99.90
61896;DHT22;47835;52.778;5.956;2022-09-09T16:58:54;21.00;99.90
61896;DHT22;47835;52.778;5.956;2022-09-09T17:01:22;21.00;99.90
61896;DHT22;47835;52.778;5.956;2022-09-09T17:03:59;21.00;99.90
61896;DHT22;47835;52.778;5.956;2022-09-09T17:06:26;21.00;99.90
61896;DHT22;47835;52.778;5.956;2022-09-09T17:08:58;21.00;99.90
61896;DHT22;47835;52.778;5.956;2022-09-09T17:11:23;21.00;99.90
61896;DHT22;47835;52.778;5.956;2022-09-09T17:13:50;21.00;99.90
61896;DHT22;47835;52.778;5.956;2022-09-09T17:16:19;21.00;99.90
61896;DHT22;47835;52.778;5.956;2022-09-09T17:18:47;21.00;99.90
61896;DHT22;47835;52.778;5.956;2022-09-09T17:21:15;21.00;99.90
61896;DHT22;47835;52.778;5.956;2022-09-09T17:23:42;21.00;99.90
61896;DHT22;47835;52.778;5.956;2022-09-09T17:26:10;21.00;99.90
61896;DHT22;47835;52.778;5.956;2022-09-09T17:28:37;21.00;99.90
61896;DHT22;47835;52.778;5.956;2022-09-09T17:31:08;21.00;99.90
61896;DHT22;47835;52.778;5.956;2022-09-09T17:33:35;21.00;99.90
61896;DHT22;47835;52.778;5.956;2022-09-09T17:36:09;21.00;99.90
61896;DHT22;47835;52.778;5.956;2022-09-09T17:38:36;21.00;99.90
61896;DHT22;47835;52.778;5.956;2022-09-09T17:41:07;21.00;99.90
61896;DHT22;47835;52.778;5.956;2022-09-09T17:43:34;21.00;99.90
61896;DHT22;47835;52.778;5.956;2022-09-09T17:46:23;21.00;99.90
61896;DHT22;47835;52.778;5.956;2022-09-09T17:48:55;21.00;99.90